sensor_id;sensor_type;location;lat;lon;timestamp;P1;durP1;ratioP1;P2;durP2;ratioP2
30173;SDS011;16985;50.814;8.530;2022-07-09T00:02:04;2.85;;;1.25;;
30173;SDS011;16985;50.814;8.530;2022-07-09T00:04:30;3.33;;;1.58;;
30173;SDS011;16985;50.814;8.530;2022-07-09T00:06:56;2.30;;;1.38;;
30173;SDS011;16985;50.814;8.530;2022-07-09T00:09:23;4.07;;;2.15;;
30173;SDS011;16985;50.814;8.530;2022-07-09T00:11:49;3.63;;;1.90;;
30173;SDS011;16985;50.814;8.530;2022-07-09T00:14:15;3.53;;;1.60;;
30173;SDS011;16985;50.814;8.530;2022-07-09T00:16:41;2.00;;;1.60;;
30173;SDS011;16985;50.814;8.530;2022-07-09T00:19:06;5.72;;;2.28;;
30173;SDS011;16985;50.814;8.530;2022-07-09T00:21:32;1.83;;;1.42;;
30173;SDS011;16985;50.814;8.530;2022-07-09T00:23:58;2.95;;;1.30;;
30173;SDS011;16985;50.814;8.530;2022-07-09T00:26:24;2.05;;;1.77;;
30173;SDS011;16985;50.814;8.530;2022-07-09T00:28:49;3.25;;;1.55;;
30173;SDS011;16985;50.814;8.530;2022-07-09T00:31:15;2.00;;;1.55;;
30173;SDS011;16985;50.814;8.530;2022-07-09T00:33:41;3.72;;;1.50;;
30173;SDS011;16985;50.814;8.530;2022-07-09T00:36:07;2.78;;;1.58;;
30173;SDS011;16985;50.814;8.530;2022-07-09T00:38:32;2.10;;;1.85;;
30173;SDS011;16985;50.814;8.530;2022-07-09T00:40:58;2.38;;;1.40;;
30173;SDS011;16985;50.814;8.530;2022-07-09T00:43:24;2.50;;;1.60;;
30173;SDS011;16985;50.814;8.530;2022-07-09T00:45:50;3.65;;;1.85;;
30173;SDS011;16985;50.814;8.530;2022-07-09T00:48:15;4.20;;;1.60;;
30173;SDS011;16985;50.814;8.530;2022-07-09T00:50:42;2.17;;;1.60;;
30173;SDS011;16985;50.814;8.530;2022-07-09T00:53:12;3.20;;;1.77;;
30173;SDS011;16985;50.814;8.530;2022-07-09T00:55:41;3.72;;;1.50;;
30173;SDS011;16985;50.814;8.530;2022-07-09T01:00:37;5.13;;;1.58;;
30173;SDS011;16985;50.814;8.530;2022-07-09T01:03:03;3.38;;;1.60;;
30173;SDS011;16985;50.814;8.530;2022-07-09T01:05:29;3.85;;;1.65;;
30173;SDS011;16985;50.814;8.530;2022-07-09T01:08:03;2.75;;;1.70;;
30173;SDS011;16985;50.814;8.530;2022-07-09T01:10:31;4.03;;;1.83;;
30173;SDS011;16985;50.814;8.530;2022-07-09T01:12:59;2.58;;;1.50;;
30173;SDS011;16985;50.814;8.530;2022-07-09T01:15:25;5.22;;;1.90;;
30173;SDS011;16985;50.814;8.530;2022-07-09T01:17:51;3.80;;;1.83;;
30173;SDS011;16985;50.814;8.530;2022-07-09T01:20:18;3.97;;;1.90;;
30173;SDS011;16985;50.814;8.530;2022-07-09T01:22:48;6.13;;;3.38;;
30173;SDS011;16985;50.814;8.530;2022-07-09T01:25:15;4.38;;;1.70;;
30173;SDS011;16985;50.814;8.530;2022-07-09T01:27:42;1.92;;;1.60;;
30173;SDS011;16985;50.814;8.530;2022-07-09T01:30:08;3.05;;;1.60;;
30173;SDS011;16985;50.814;8.530;2022-07-09T01:32:34;2.88;;;2.15;;
30173;SDS011;16985;50.814;8.530;2022-07-09T01:35:00;2.25;;;1.70;;
30173;SDS011;16985;50.814;8.530;2022-07-09T01:37:26;3.38;;;1.92;;
30173;SDS011;16985;50.814;8.530;2022-07-09T01:39:52;3.65;;;1.83;;
30173;SDS011;16985;50.814;8.530;2022-07-09T01:42:18;4.72;;;1.80;;
30173;SDS011;16985;50.814;8.530;2022-07-09T01:44:45;4.47;;;2.20;;
30173;SDS011;16985;50.814;8.530;2022-07-09T01:47:13;3.60;;;2.15;;
30173;SDS011;16985;50.814;8.530;2022-07-09T01:49:42;3.33;;;1.75;;
30173;SDS011;16985;50.814;8.530;2022-07-09T01:52:08;3.13;;;1.98;;
30173;SDS011;16985;50.814;8.530;2022-07-09T01:54:34;4.00;;;2.03;;
30173;SDS011;16985;50.814;8.530;2022-07-09T01:57:00;2.47;;;1.70;;
30173;SDS011;16985;50.814;8.530;2022-07-09T01:59:26;3.67;;;1.90;;
30173;SDS011;16985;50.814;8.530;2022-07-09T02:01:52;3.13;;;1.95;;
30173;SDS011;16985;50.814;8.530;2022-07-09T02:04:17;3.03;;;1.90;;
30173;SDS011;16985;50.814;8.530;2022-07-09T02:06:43;5.53;;;1.60;;
30173;SDS011;16985;50.814;8.530;2022-07-09T02:09:09;4.82;;;2.10;;
30173;SDS011;16985;50.814;8.530;2022-07-09T02:11:35;3.00;;;1.83;;
30173;SDS011;16985;50.814;8.530;2022-07-09T02:14:00;3.53;;;2.15;;
30173;SDS011;16985;50.814;8.530;2022-07-09T02:16:26;5.93;;;1.83;;
30173;SDS011;16985;50.814;8.530;2022-07-09T02:18:52;2.60;;;1.60;;
30173;SDS011;16985;50.814;8.530;2022-07-09T02:21:17;2.92;;;1.90;;
30173;SDS011;16985;50.814;8.530;2022-07-09T02:23:43;4.28;;;2.20;;
30173;SDS011;16985;50.814;8.530;2022-07-09T02:26:10;3.50;;;1.70;;
30173;SDS011;16985;50.814;8.530;2022-07-09T02:28:36;2.97;;;1.95;;
30173;SDS011;16985;50.814;8.530;2022-07-09T02:31:02;2.72;;;1.92;;
30173;SDS011;16985;50.814;8.530;2022-07-09T02:33:27;6.13;;;2.20;;
30173;SDS011;16985;50.814;8.530;2022-07-09T02:35:55;3.42;;;1.52;;
30173;SDS011;16985;50.814;8.530;2022-07-09T02:38:21;2.45;;;1.77;;
30173;SDS011;16985;50.814;8.530;2022-07-09T02:40:47;5.05;;;2.30;;
30173;SDS011;16985;50.814;8.530;2022-07-09T02:43:13;3.63;;;2.38;;
30173;SDS011;16985;50.814;8.530;2022-07-09T02:45:39;3.88;;;1.80;;
30173;SDS011;16985;50.814;8.530;2022-07-09T02:48:05;3.95;;;1.92;;
30173;SDS011;16985;50.814;8.530;2022-07-09T02:50:30;4.45;;;2.10;;
30173;SDS011;16985;50.814;8.530;2022-07-09T02:52:56;3.72;;;1.77;;
30173;SDS011;16985;50.814;8.530;2022-07-09T02:55:22;1.88;;;1.50;;
30173;SDS011;16985;50.814;8.530;2022-07-09T02:57:48;5.30;;;2.10;;
30173;SDS011;16985;50.814;8.530;2022-07-09T03:00:13;5.32;;;1.98;;
30173;SDS011;16985;50.814;8.530;2022-07-09T03:02:40;5.78;;;2.10;;
30173;SDS011;16985;50.814;8.530;2022-07-09T03:05:06;3.80;;;1.80;;
30173;SDS011;16985;50.814;8.530;2022-07-09T03:07:32;3.30;;;2.50;;
30173;SDS011;16985;50.814;8.530;2022-07-09T03:09:58;2.65;;;1.73;;
30173;SDS011;16985;50.814;8.530;2022-07-09T03:12:23;3.92;;;2.58;;
30173;SDS011;16985;50.814;8.530;2022-07-09T03:14:49;4.28;;;2.35;;
30173;SDS011;16985;50.814;8.530;2022-07-09T03:17:15;3.65;;;2.00;;
30173;SDS011;16985;50.814;8.530;2022-07-09T03:19:41;3.20;;;2.03;;
30173;SDS011;16985;50.814;8.530;2022-07-09T03:22:12;3.75;;;2.05;;
30173;SDS011;16985;50.814;8.530;2022-07-09T03:25:13;2.95;;;2.45;;
30173;SDS011;16985;50.814;8.530;2022-07-09T03:28:01;6.97;;;2.20;;
30173;SDS011;16985;50.814;8.530;2022-07-09T03:31:35;3.55;;;2.30;;
30173;SDS011;16985;50.814;8.530;2022-07-09T03:35:20;5.55;;;2.22;;
30173;SDS011;16985;50.814;8.530;2022-07-09T03:38:14;4.57;;;2.25;;
30173;SDS011;16985;50.814;8.530;2022-07-09T03:41:09;3.00;;;2.42;;
30173;SDS011;16985;50.814;8.530;2022-07-09T03:43:55;3.25;;;2.08;;
30173;SDS011;16985;50.814;8.530;2022-07-09T03:46:35;4.35;;;2.53;;
30173;SDS011;16985;50.814;8.530;2022-07-09T03:50:10;6.82;;;2.17;;
30173;SDS011;16985;50.814;8.530;2022-07-09T03:53:09;2.65;;;2.28;;
30173;SDS011;16985;50.814;8.530;2022-07-09T03:56:39;3.85;;;2.22;;
30173;SDS011;16985;50.814;8.530;2022-07-09T03:59:05;2.95;;;2.47;;
30173;SDS011;16985;50.814;8.530;2022-07-09T04:01:31;4.03;;;2.60;;
30173;SDS011;16985;50.814;8.530;2022-07-09T04:03:57;7.05;;;2.65;;
30173;SDS011;16985;50.814;8.530;2022-07-09T04:06:23;5.70;;;3.20;;
30173;SDS011;16985;50.814;8.530;2022-07-09T04:08:49;3.33;;;2.30;;
30173;SDS011;16985;50.814;8.530;2022-07-09T04:11:15;4.28;;;2.42;;
30173;SDS011;16985;50.814;8.530;2022-07-09T04:13:41;4.80;;;2.70;;
30173;SDS011;16985;50.814;8.530;2022-07-09T04:16:07;4.07;;;2.50;;
30173;SDS011;16985;50.814;8.530;2022-07-09T04:18:34;3.28;;;2.15;;
30173;SDS011;16985;50.814;8.530;2022-07-09T04:21:00;3.40;;;2.22;;
30173;SDS011;16985;50.814;8.530;2022-07-09T04:23:26;2.50;;;2.30;;
30173;SDS011;16985;50.814;8.530;2022-07-09T04:25:52;3.58;;;2.50;;
30173;SDS011;16985;50.814;8.530;2022-07-09T04:28:18;3.47;;;2.45;;
30173;SDS011;16985;50.814;8.530;2022-07-09T04:30:45;4.05;;;2.17;;
30173;SDS011;16985;50.814;8.530;2022-07-09T04:33:11;4.43;;;2.47;;
30173;SDS011;16985;50.814;8.530;2022-07-09T04:35:38;7.03;;;2.65;;
30173;SDS011;16985;50.814;8.530;2022-07-09T04:38:04;4.40;;;2.50;;
30173;SDS011;16985;50.814;8.530;2022-07-09T04:40:30;8.18;;;3.22;;
30173;SDS011;16985;50.814;8.530;2022-07-09T04:42:56;5.32;;;2.67;;
30173;SDS011;16985;50.814;8.530;2022-07-09T04:45:22;5.28;;;2.70;;
30173;SDS011;16985;50.814;8.530;2022-07-09T04:47:48;5.00;;;2.60;;
30173;SDS011;16985;50.814;8.530;2022-07-09T04:50:14;2.55;;;2.30;;
30173;SDS011;16985;50.814;8.530;2022-07-09T04:52:40;3.60;;;2.60;;
30173;SDS011;16985;50.814;8.530;2022-07-09T04:55:06;4.30;;;2.33;;
30173;SDS011;16985;50.814;8.530;2022-07-09T04:57:32;5.82;;;2.88;;
30173;SDS011;16985;50.814;8.530;2022-07-09T05:00:01;4.95;;;2.80;;
30173;SDS011;16985;50.814;8.530;2022-07-09T05:02:28;4.60;;;2.47;;
30173;SDS011;16985;50.814;8.530;2022-07-09T05:04:54;4.10;;;2.50;;
30173;SDS011;16985;50.814;8.530;2022-07-09T05:07:20;4.43;;;2.85;;
30173;SDS011;16985;50.814;8.530;2022-07-09T05:09:46;5.57;;;2.67;;
30173;SDS011;16985;50.814;8.530;2022-07-09T05:12:11;4.28;;;2.53;;
30173;SDS011;16985;50.814;8.530;2022-07-09T05:14:37;5.05;;;2.67;;
30173;SDS011;16985;50.814;8.530;2022-07-09T05:17:04;3.75;;;2.97;;
30173;SDS011;16985;50.814;8.530;2022-07-09T05:19:30;6.30;;;2.78;;
30173;SDS011;16985;50.814;8.530;2022-07-09T05:21:57;8.85;;;2.67;;
30173;SDS011;16985;50.814;8.530;2022-07-09T05:24:23;7.40;;;3.28;;
30173;SDS011;16985;50.814;8.530;2022-07-09T05:26:49;4.93;;;3.08;;
30173;SDS011;16985;50.814;8.530;2022-07-09T05:29:15;7.25;;;2.90;;
30173;SDS011;16985;50.814;8.530;2022-07-09T05:31:41;4.88;;;2.83;;
30173;SDS011;16985;50.814;8.530;2022-07-09T05:34:07;6.00;;;3.22;;
30173;SDS011;16985;50.814;8.530;2022-07-09T05:36:33;6.95;;;3.03;;
30173;SDS011;16985;50.814;8.530;2022-07-09T05:38:59;6.60;;;3.10;;
30173;SDS011;16985;50.814;8.530;2022-07-09T05:41:25;3.33;;;2.67;;
30173;SDS011;16985;50.814;8.530;2022-07-09T05:43:52;5.80;;;2.75;;
30173;SDS011;16985;50.814;8.530;2022-07-09T05:46:19;4.60;;;2.47;;
30173;SDS011;16985;50.814;8.530;2022-07-09T05:48:45;5.05;;;2.72;;
30173;SDS011;16985;50.814;8.530;2022-07-09T05:51:11;3.20;;;2.90;;
30173;SDS011;16985;50.814;8.530;2022-07-09T05:53:37;8.57;;;3.58;;
30173;SDS011;16985;50.814;8.530;2022-07-09T05:56:03;4.05;;;2.95;;
30173;SDS011;16985;50.814;8.530;2022-07-09T05:58:29;3.92;;;2.97;;
30173;SDS011;16985;50.814;8.530;2022-07-09T06:00:55;5.47;;;3.05;;
30173;SDS011;16985;50.814;8.530;2022-07-09T06:03:21;5.88;;;3.28;;
30173;SDS011;16985;50.814;8.530;2022-07-09T06:05:47;12.88;;;3.95;;
30173;SDS011;16985;50.814;8.530;2022-07-09T06:08:12;4.00;;;2.67;;
30173;SDS011;16985;50.814;8.530;2022-07-09T06:10:38;4.82;;;3.17;;
30173;SDS011;16985;50.814;8.530;2022-07-09T06:13:04;5.65;;;3.33;;
30173;SDS011;16985;50.814;8.530;2022-07-09T06:15:30;4.85;;;3.03;;
30173;SDS011;16985;50.814;8.530;2022-07-09T06:17:56;4.03;;;2.78;;
30173;SDS011;16985;50.814;8.530;2022-07-09T06:20:22;4.72;;;2.92;;
30173;SDS011;16985;50.814;8.530;2022-07-09T06:22:48;7.00;;;3.10;;
30173;SDS011;16985;50.814;8.530;2022-07-09T06:25:14;6.93;;;3.28;;
30173;SDS011;16985;50.814;8.530;2022-07-09T06:27:39;7.25;;;3.72;;
30173;SDS011;16985;50.814;8.530;2022-07-09T06:30:06;7.28;;;3.30;;
30173;SDS011;16985;50.814;8.530;2022-07-09T06:32:32;6.15;;;2.92;;
30173;SDS011;16985;50.814;8.530;2022-07-09T06:34:58;9.90;;;3.67;;
30173;SDS011;16985;50.814;8.530;2022-07-09T06:37:24;8.18;;;4.03;;
30173;SDS011;16985;50.814;8.530;2022-07-09T06:39:49;6.40;;;3.42;;
30173;SDS011;16985;50.814;8.530;2022-07-09T06:42:16;6.10;;;3.70;;
30173;SDS011;16985;50.814;8.530;2022-07-09T06:44:46;7.07;;;4.10;;
30173;SDS011;16985;50.814;8.530;2022-07-09T06:47:11;6.10;;;4.28;;
30173;SDS011;16985;50.814;8.530;2022-07-09T06:49:37;8.68;;;4.85;;
30173;SDS011;16985;50.814;8.530;2022-07-09T06:52:04;8.00;;;5.05;;
30173;SDS011;16985;50.814;8.530;2022-07-09T06:54:30;12.13;;;5.25;;
30173;SDS011;16985;50.814;8.530;2022-07-09T06:56:56;13.02;;;5.20;;
30173;SDS011;16985;50.814;8.530;2022-07-09T06:59:24;13.00;;;5.15;;
30173;SDS011;16985;50.814;8.530;2022-07-09T07:01:50;12.45;;;4.40;;
30173;SDS011;16985;50.814;8.530;2022-07-09T07:04:16;11.93;;;4.90;;
30173;SDS011;16985;50.814;8.530;2022-07-09T07:06:42;10.80;;;5.70;;
30173;SDS011;16985;50.814;8.530;2022-07-09T07:09:09;8.25;;;4.30;;
30173;SDS011;16985;50.814;8.530;2022-07-09T07:11:35;8.50;;;5.57;;
30173;SDS011;16985;50.814;8.530;2022-07-09T07:14:01;13.77;;;6.07;;
30173;SDS011;16985;50.814;8.530;2022-07-09T07:16:27;8.48;;;4.90;;
30173;SDS011;16985;50.814;8.530;2022-07-09T07:18:52;9.70;;;6.28;;
30173;SDS011;16985;50.814;8.530;2022-07-09T07:21:19;14.65;;;5.75;;
30173;SDS011;16985;50.814;8.530;2022-07-09T07:23:45;16.77;;;7.72;;
30173;SDS011;16985;50.814;8.530;2022-07-09T07:26:11;15.15;;;7.22;;
30173;SDS011;16985;50.814;8.530;2022-07-09T07:28:36;12.40;;;7.60;;
30173;SDS011;16985;50.814;8.530;2022-07-09T07:31:02;15.00;;;9.88;;
30173;SDS011;16985;50.814;8.530;2022-07-09T07:33:28;18.52;;;9.57;;
30173;SDS011;16985;50.814;8.530;2022-07-09T07:35:54;17.33;;;9.80;;
30173;SDS011;16985;50.814;8.530;2022-07-09T07:38:20;18.50;;;9.50;;
30173;SDS011;16985;50.814;8.530;2022-07-09T07:40:45;22.38;;;11.43;;
30173;SDS011;16985;50.814;8.530;2022-07-09T07:43:11;18.92;;;11.23;;
30173;SDS011;16985;50.814;8.530;2022-07-09T07:45:37;20.15;;;11.57;;
30173;SDS011;16985;50.814;8.530;2022-07-09T07:48:03;19.10;;;10.77;;
30173;SDS011;16985;50.814;8.530;2022-07-09T07:50:30;17.95;;;9.43;;
30173;SDS011;16985;50.814;8.530;2022-07-09T07:52:57;16.60;;;8.43;;
30173;SDS011;16985;50.814;8.530;2022-07-09T07:55:23;17.58;;;9.48;;
30173;SDS011;16985;50.814;8.530;2022-07-09T07:58:01;15.98;;;8.75;;
30173;SDS011;16985;50.814;8.530;2022-07-09T08:00:29;11.65;;;8.07;;
30173;SDS011;16985;50.814;8.530;2022-07-09T08:02:55;14.70;;;7.90;;
30173;SDS011;16985;50.814;8.530;2022-07-09T08:05:21;14.85;;;8.52;;
30173;SDS011;16985;50.814;8.530;2022-07-09T08:07:47;15.25;;;6.90;;
30173;SDS011;16985;50.814;8.530;2022-07-09T08:10:13;15.65;;;7.32;;
30173;SDS011;16985;50.814;8.530;2022-07-09T08:12:39;10.02;;;6.68;;
30173;SDS011;16985;50.814;8.530;2022-07-09T08:15:05;10.32;;;6.43;;
30173;SDS011;16985;50.814;8.530;2022-07-09T08:17:31;8.68;;;5.00;;
30173;SDS011;16985;50.814;8.530;2022-07-09T08:19:57;8.35;;;4.28;;
30173;SDS011;16985;50.814;8.530;2022-07-09T08:22:23;7.15;;;3.75;;
30173;SDS011;16985;50.814;8.530;2022-07-09T08:24:48;4.28;;;3.35;;
30173;SDS011;16985;50.814;8.530;2022-07-09T08:27:14;4.25;;;3.13;;
30173;SDS011;16985;50.814;8.530;2022-07-09T08:29:40;3.13;;;2.83;;
30173;SDS011;16985;50.814;8.530;2022-07-09T08:32:06;4.20;;;2.80;;
30173;SDS011;16985;50.814;8.530;2022-07-09T08:34:32;8.10;;;3.08;;
30173;SDS011;16985;50.814;8.530;2022-07-09T08:36:58;4.07;;;2.33;;
30173;SDS011;16985;50.814;8.530;2022-07-09T08:39:23;6.80;;;2.53;;
30173;SDS011;16985;50.814;8.530;2022-07-09T08:41:50;2.95;;;2.15;;
30173;SDS011;16985;50.814;8.530;2022-07-09T08:46:44;2.95;;;1.63;;
30173;SDS011;16985;50.814;8.530;2022-07-09T08:49:11;1.92;;;1.42;;
30173;SDS011;16985;50.814;8.530;2022-07-09T08:51:39;2.17;;;1.60;;
30173;SDS011;16985;50.814;8.530;2022-07-09T08:54:08;1.70;;;1.52;;
30173;SDS011;16985;50.814;8.530;2022-07-09T08:56:34;4.22;;;1.40;;
30173;SDS011;16985;50.814;8.530;2022-07-09T08:59:00;2.38;;;1.52;;
30173;SDS011;16985;50.814;8.530;2022-07-09T09:01:27;2.70;;;1.65;;
30173;SDS011;16985;50.814;8.530;2022-07-09T09:03:53;1.67;;;1.48;;
30173;SDS011;16985;50.814;8.530;2022-07-09T09:06:20;2.10;;;1.15;;
30173;SDS011;16985;50.814;8.530;2022-07-09T09:11:23;4.20;;;1.20;;
30173;SDS011;16985;50.814;8.530;2022-07-09T09:13:50;1.90;;;1.45;;
30173;SDS011;16985;50.814;8.530;2022-07-09T09:18:53;3.22;;;1.05;;
30173;SDS011;16985;50.814;8.530;2022-07-09T09:21:24;2.60;;;1.45;;
30173;SDS011;16985;50.814;8.530;2022-07-09T09:23:51;1.35;;;1.10;;
30173;SDS011;16985;50.814;8.530;2022-07-09T09:26:26;1.05;;;0.90;;
30173;SDS011;16985;50.814;8.530;2022-07-09T09:28:57;1.15;;;1.05;;
30173;SDS011;16985;50.814;8.530;2022-07-09T09:33:53;2.30;;;1.17;;
30173;SDS011;16985;50.814;8.530;2022-07-09T09:36:44;1.90;;;1.10;;
30173;SDS011;16985;50.814;8.530;2022-07-09T09:39:15;4.25;;;1.10;;
30173;SDS011;16985;50.814;8.530;2022-07-09T09:41:58;1.50;;;0.85;;
30173;SDS011;16985;50.814;8.530;2022-07-09T09:44:34;1.35;;;0.80;;
30173;SDS011;16985;50.814;8.530;2022-07-09T09:47:03;3.45;;;1.17;;
30173;SDS011;16985;50.814;8.530;2022-07-09T09:49:29;1.85;;;0.82;;
30173;SDS011;16985;50.814;8.530;2022-07-09T09:54:52;1.50;;;0.90;;
30173;SDS011;16985;50.814;8.530;2022-07-09T09:57:59;1.25;;;0.77;;
30173;SDS011;16985;50.814;8.530;2022-07-09T10:00:33;3.58;;;1.23;;
30173;SDS011;16985;50.814;8.530;2022-07-09T10:03:10;3.70;;;0.73;;
30173;SDS011;16985;50.814;8.530;2022-07-09T10:05:41;1.52;;;0.77;;
30173;SDS011;16985;50.814;8.530;2022-07-09T10:08:39;2.10;;;0.80;;
30173;SDS011;16985;50.814;8.530;2022-07-09T10:11:12;1.88;;;0.85;;
30173;SDS011;16985;50.814;8.530;2022-07-09T10:20:28;1.63;;;0.88;;
30173;SDS011;16985;50.814;8.530;2022-07-09T10:23:02;1.73;;;1.00;;
30173;SDS011;16985;50.814;8.530;2022-07-09T10:25:47;2.97;;;0.90;;
30173;SDS011;16985;50.814;8.530;2022-07-09T10:28:40;1.63;;;0.90;;
30173;SDS011;16985;50.814;8.530;2022-07-09T10:31:10;1.95;;;0.85;;
30173;SDS011;16985;50.814;8.530;2022-07-09T10:34:43;4.78;;;0.77;;
30173;SDS011;16985;50.814;8.530;2022-07-09T10:37:52;1.48;;;0.85;;
30173;SDS011;16985;50.814;8.530;2022-07-09T10:40:22;2.40;;;1.00;;
30173;SDS011;16985;50.814;8.530;2022-07-09T10:43:50;2.70;;;1.30;;
30173;SDS011;16985;50.814;8.530;2022-07-09T10:46:28;2.17;;;1.35;;
30173;SDS011;16985;50.814;8.530;2022-07-09T10:49:09;2.15;;;1.27;;
30173;SDS011;16985;50.814;8.530;2022-07-09T10:51:40;2.30;;;1.05;;
30173;SDS011;16985;50.814;8.530;2022-07-09T10:54:15;1.85;;;1.15;;
30173;SDS011;16985;50.814;8.530;2022-07-09T10:56:53;1.52;;;1.02;;
30173;SDS011;16985;50.814;8.530;2022-07-09T10:59:25;0.77;;;0.77;;
30173;SDS011;16985;50.814;8.530;2022-07-09T11:02:00;1.73;;;0.70;;
30173;SDS011;16985;50.814;8.530;2022-07-09T11:04:27;1.67;;;0.80;;
30173;SDS011;16985;50.814;8.530;2022-07-09T11:06:55;2.53;;;0.90;;
30173;SDS011;16985;50.814;8.530;2022-07-09T11:09:21;1.52;;;0.80;;
30173;SDS011;16985;50.814;8.530;2022-07-09T11:11:49;2.38;;;1.00;;
30173;SDS011;16985;50.814;8.530;2022-07-09T11:14:15;2.28;;;1.15;;
30173;SDS011;16985;50.814;8.530;2022-07-09T11:16:41;1.50;;;1.00;;
30173;SDS011;16985;50.814;8.530;2022-07-09T11:21:40;3.03;;;1.00;;
30173;SDS011;16985;50.814;8.530;2022-07-09T11:24:12;0.70;;;0.63;;
30173;SDS011;16985;50.814;8.530;2022-07-09T11:26:40;1.63;;;1.00;;
30173;SDS011;16985;50.814;8.530;2022-07-09T11:29:09;0.90;;;0.85;;
30173;SDS011;16985;50.814;8.530;2022-07-09T11:31:35;1.35;;;0.82;;
30173;SDS011;16985;50.814;8.530;2022-07-09T11:34:03;2.05;;;0.88;;
30173;SDS011;16985;50.814;8.530;2022-07-09T11:36:41;1.13;;;0.70;;
30173;SDS011;16985;50.814;8.530;2022-07-09T11:39:09;0.90;;;0.80;;
30173;SDS011;16985;50.814;8.530;2022-07-09T11:41:56;1.45;;;0.80;;
30173;SDS011;16985;50.814;8.530;2022-07-09T11:44:32;0.68;;;0.68;;
30173;SDS011;16985;50.814;8.530;2022-07-09T11:49:39;1.92;;;0.90;;
30173;SDS011;16985;50.814;8.530;2022-07-09T11:52:19;1.20;;;0.80;;
30173;SDS011;16985;50.814;8.530;2022-07-09T12:00:03;1.17;;;0.90;;
30173;SDS011;16985;50.814;8.530;2022-07-09T12:02:39;2.22;;;1.00;;
30173;SDS011;16985;50.814;8.530;2022-07-09T12:05:06;1.33;;;0.80;;
30173;SDS011;16985;50.814;8.530;2022-07-09T12:07:34;2.80;;;1.10;;
30173;SDS011;16985;50.814;8.530;2022-07-09T12:10:04;3.20;;;0.95;;
30173;SDS011;16985;50.814;8.530;2022-07-09T12:12:35;3.75;;;1.30;;
30173;SDS011;16985;50.814;8.530;2022-07-09T12:15:05;1.77;;;0.85;;
30173;SDS011;16985;50.814;8.530;2022-07-09T12:17:33;4.22;;;1.10;;
30173;SDS011;16985;50.814;8.530;2022-07-09T12:19:59;1.05;;;0.70;;
30173;SDS011;16985;50.814;8.530;2022-07-09T12:22:25;1.98;;;1.02;;
30173;SDS011;16985;50.814;8.530;2022-07-09T12:24:51;1.42;;;0.93;;
30173;SDS011;16985;50.814;8.530;2022-07-09T12:27:18;1.35;;;0.70;;
30173;SDS011;16985;50.814;8.530;2022-07-09T12:29:47;4.75;;;0.98;;
30173;SDS011;16985;50.814;8.530;2022-07-09T12:32:13;2.58;;;1.38;;
30173;SDS011;16985;50.814;8.530;2022-07-09T12:34:46;3.03;;;1.08;;
30173;SDS011;16985;50.814;8.530;2022-07-09T12:37:18;3.70;;;1.30;;
30173;SDS011;16985;50.814;8.530;2022-07-09T12:39:44;1.45;;;1.35;;
30173;SDS011;16985;50.814;8.530;2022-07-09T12:42:09;2.90;;;1.10;;
30173;SDS011;16985;50.814;8.530;2022-07-09T12:44:36;2.58;;;1.55;;
30173;SDS011;16985;50.814;8.530;2022-07-09T12:47:01;2.30;;;1.50;;
30173;SDS011;16985;50.814;8.530;2022-07-09T12:49:28;4.60;;;1.77;;
30173;SDS011;16985;50.814;8.530;2022-07-09T12:51:54;2.13;;;1.55;;
30173;SDS011;16985;50.814;8.530;2022-07-09T12:54:19;2.25;;;1.73;;
30173;SDS011;16985;50.814;8.530;2022-07-09T12:56:45;2.50;;;1.58;;
30173;SDS011;16985;50.814;8.530;2022-07-09T12:59:15;5.43;;;1.70;;
30173;SDS011;16985;50.814;8.530;2022-07-09T13:01:42;2.00;;;1.70;;
30173;SDS011;16985;50.814;8.530;2022-07-09T13:04:09;2.70;;;1.38;;
30173;SDS011;16985;50.814;8.530;2022-07-09T13:06:35;6.43;;;1.75;;
30173;SDS011;16985;50.814;8.530;2022-07-09T13:09:08;4.05;;;1.63;;
30173;SDS011;16985;50.814;8.530;2022-07-09T13:11:35;4.15;;;1.65;;
30173;SDS011;16985;50.814;8.530;2022-07-09T13:14:02;1.42;;;1.33;;
30173;SDS011;16985;50.814;8.530;2022-07-09T13:16:28;1.90;;;1.70;;
30173;SDS011;16985;50.814;8.530;2022-07-09T13:18:54;2.28;;;1.25;;
30173;SDS011;16985;50.814;8.530;2022-07-09T13:21:21;2.25;;;1.35;;
30173;SDS011;16985;50.814;8.530;2022-07-09T13:23:47;2.83;;;1.80;;
30173;SDS011;16985;50.814;8.530;2022-07-09T13:26:14;2.92;;;1.35;;
30173;SDS011;16985;50.814;8.530;2022-07-09T13:28:41;2.83;;;1.60;;
30173;SDS011;16985;50.814;8.530;2022-07-09T13:31:07;2.85;;;2.15;;
30173;SDS011;16985;50.814;8.530;2022-07-09T13:33:34;1.63;;;1.40;;
30173;SDS011;16985;50.814;8.530;2022-07-09T13:36:01;2.70;;;1.33;;
30173;SDS011;16985;50.814;8.530;2022-07-09T13:40:54;4.38;;;1.30;;
30173;SDS011;16985;50.814;8.530;2022-07-09T13:43:21;2.88;;;1.30;;
30173;SDS011;16985;50.814;8.530;2022-07-09T13:45:49;1.80;;;1.30;;
30173;SDS011;16985;50.814;8.530;2022-07-09T13:48:15;2.65;;;1.38;;
30173;SDS011;16985;50.814;8.530;2022-07-09T13:50:41;1.45;;;1.30;;
30173;SDS011;16985;50.814;8.530;2022-07-09T13:53:07;2.67;;;1.50;;
30173;SDS011;16985;50.814;8.530;2022-07-09T13:55:33;2.58;;;1.17;;
30173;SDS011;16985;50.814;8.530;2022-07-09T13:58:00;2.13;;;1.30;;
30173;SDS011;16985;50.814;8.530;2022-07-09T14:00:26;1.90;;;1.13;;
30173;SDS011;16985;50.814;8.530;2022-07-09T14:02:52;3.25;;;1.13;;
30173;SDS011;16985;50.814;8.530;2022-07-09T14:05:18;2.50;;;1.70;;
30173;SDS011;16985;50.814;8.530;2022-07-09T14:07:44;3.05;;;1.90;;
30173;SDS011;16985;50.814;8.530;2022-07-09T14:10:11;4.75;;;1.70;;
30173;SDS011;16985;50.814;8.530;2022-07-09T14:12:37;2.45;;;1.35;;
30173;SDS011;16985;50.814;8.530;2022-07-09T14:15:03;1.45;;;1.35;;
30173;SDS011;16985;50.814;8.530;2022-07-09T14:17:30;2.53;;;1.45;;
30173;SDS011;16985;50.814;8.530;2022-07-09T14:19:55;1.58;;;1.20;;
30173;SDS011;16985;50.814;8.530;2022-07-09T14:22:23;2.90;;;1.50;;
30173;SDS011;16985;50.814;8.530;2022-07-09T14:24:49;3.88;;;1.38;;
30173;SDS011;16985;50.814;8.530;2022-07-09T14:27:15;1.48;;;1.38;;
30173;SDS011;16985;50.814;8.530;2022-07-09T14:29:42;2.45;;;1.30;;
30173;SDS011;16985;50.814;8.530;2022-07-09T14:32:08;2.55;;;1.45;;
30173;SDS011;16985;50.814;8.530;2022-07-09T14:34:34;2.00;;;1.45;;
30173;SDS011;16985;50.814;8.530;2022-07-09T14:37:00;33.72;;;18.00;;
30173;SDS011;16985;50.814;8.530;2022-07-09T14:39:27;17.65;;;10.60;;
30173;SDS011;16985;50.814;8.530;2022-07-09T14:41:52;10.90;;;7.28;;
30173;SDS011;16985;50.814;8.530;2022-07-09T14:44:18;8.70;;;4.47;;
30173;SDS011;16985;50.814;8.530;2022-07-09T14:46:44;6.60;;;3.78;;
30173;SDS011;16985;50.814;8.530;2022-07-09T14:49:10;6.95;;;4.03;;
30173;SDS011;16985;50.814;8.530;2022-07-09T14:51:36;5.22;;;2.83;;
30173;SDS011;16985;50.814;8.530;2022-07-09T14:54:03;6.03;;;2.80;;
30173;SDS011;16985;50.814;8.530;2022-07-09T14:56:30;5.57;;;2.60;;
30173;SDS011;16985;50.814;8.530;2022-07-09T14:58:56;3.10;;;2.30;;
30173;SDS011;16985;50.814;8.530;2022-07-09T15:01:22;5.95;;;2.20;;
30173;SDS011;16985;50.814;8.530;2022-07-09T15:03:48;3.05;;;2.22;;
30173;SDS011;16985;50.814;8.530;2022-07-09T15:06:14;2.67;;;2.00;;
30173;SDS011;16985;50.814;8.530;2022-07-09T15:08:40;2.90;;;2.08;;
30173;SDS011;16985;50.814;8.530;2022-07-09T15:11:06;2.63;;;1.88;;
30173;SDS011;16985;50.814;8.530;2022-07-09T15:13:32;2.42;;;2.05;;
30173;SDS011;16985;50.814;8.530;2022-07-09T15:15:58;3.38;;;2.42;;
30173;SDS011;16985;50.814;8.530;2022-07-09T15:18:24;3.85;;;1.95;;
30173;SDS011;16985;50.814;8.530;2022-07-09T15:20:50;3.95;;;1.90;;
30173;SDS011;16985;50.814;8.530;2022-07-09T15:23:15;3.38;;;2.28;;
30173;SDS011;16985;50.814;8.530;2022-07-09T15:25:41;4.65;;;2.08;;
30173;SDS011;16985;50.814;8.530;2022-07-09T15:28:07;3.65;;;2.80;;
30173;SDS011;16985;50.814;8.530;2022-07-09T15:30:33;2.47;;;1.95;;
30173;SDS011;16985;50.814;8.530;2022-07-09T15:32:59;3.00;;;2.40;;